createdAt,value
2023-02-02T00:01:55.809Z,10.30
2023-02-02T00:04:34.701Z,9.10
2023-02-02T00:07:05.429Z,9.30
2023-02-02T00:09:34.109Z,9.50
2023-02-02T00:12:02.557Z,7.10
2023-02-02T00:14:30.889Z,9.90
2023-02-02T00:16:59.454Z,11.70
2023-02-02T00:19:33.720Z,11.10
2023-02-02T00:22:01.831Z,10.30
2023-02-02T00:24:30.003Z,9.30
2023-02-02T00:26:59.935Z,7.20
2023-02-02T00:29:30.789Z,6.80
2023-02-02T00:31:59.207Z,5.70
2023-02-02T00:34:27.357Z,6.20
2023-02-02T00:36:57.604Z,5.70
2023-02-02T00:39:27.806Z,4.20
2023-02-02T00:41:56.515Z,4.00
2023-02-02T00:44:43.304Z,4.30
2023-02-02T00:47:11.824Z,5.30
2023-02-02T00:49:40.115Z,3.70
2023-02-02T00:52:08.265Z,4.20
2023-02-02T00:54:36.451Z,4.20
2023-02-02T00:57:05.157Z,5.40
2023-02-02T00:59:33.754Z,4.20
2023-02-02T01:02:02.292Z,5.10
2023-02-02T01:04:31.031Z,5.10
2023-02-02T01:06:59.703Z,6.40
2023-02-02T01:09:29.488Z,5.30
2023-02-02T01:11:58.047Z,5.30
2023-02-02T01:14:27.006Z,6.90
2023-02-02T01:16:57.467Z,4.70
2023-02-02T01:19:27.603Z,5.60
2023-02-02T01:21:55.697Z,9.30
2023-02-02T01:24:24.168Z,7.20
2023-02-02T01:26:52.346Z,8.90
2023-02-02T01:29:20.568Z,9.00
2023-02-02T01:31:48.857Z,7.60
2023-02-02T01:34:17.064Z,10.10
2023-02-02T01:36:45.452Z,11.30
2023-02-02T01:39:13.627Z,8.40
2023-02-02T01:41:42.481Z,7.70
2023-02-02T01:44:48.121Z,9.40
2023-02-02T01:47:17.376Z,12.10
2023-02-02T01:49:46.113Z,7.50
2023-02-02T01:52:17.148Z,7.90
2023-02-02T01:54:51.508Z,7.00
2023-02-02T02:01:02.190Z,7.30
2023-02-02T02:03:33.468Z,8.80
2023-02-02T02:06:06.336Z,9.80
2023-02-02T02:08:40.080Z,10.50
2023-02-02T02:13:57.390Z,6.70
2023-02-02T02:16:32.708Z,8.60
2023-02-02T02:19:04.173Z,14.60
2023-02-02T02:22:05.866Z,9.10
2023-02-02T02:25:31.183Z,11.70
2023-02-02T02:28:00.942Z,15.80
2023-02-02T02:30:56.487Z,14.80
2023-02-02T02:33:37.565Z,17.10
2023-02-02T02:36:13.829Z,18.00
2023-02-02T02:39:15.258Z,17.00
2023-02-02T02:41:53.024Z,14.80
2023-02-02T02:44:22.831Z,18.00
2023-02-02T02:46:51.308Z,19.90
2023-02-02T02:49:20.781Z,14.50
2023-02-02T02:51:52.246Z,15.00
2023-02-02T02:54:45.733Z,20.00
2023-02-02T02:57:14.544Z,13.80
2023-02-02T02:59:49.601Z,15.90
2023-02-02T03:02:49.484Z,13.90
2023-02-02T03:05:43.864Z,15.90
2023-02-02T03:08:29.968Z,12.40
2023-02-02T03:11:00.675Z,15.40
2023-02-02T03:13:31.784Z,17.00
2023-02-02T03:16:00.272Z,14.60
2023-02-02T03:18:32.110Z,17.40
2023-02-02T03:21:02.144Z,13.40
2023-02-02T03:23:30.964Z,12.60
2023-02-02T03:26:00.531Z,20.10
2023-02-02T03:28:30.643Z,21.40
2023-02-02T03:31:01.702Z,21.60
2023-02-02T03:33:32.480Z,13.20
2023-02-02T03:36:01.618Z,15.30
2023-02-02T03:38:30.324Z,16.90
2023-02-02T03:40:58.692Z,19.90
2023-02-02T03:43:27.556Z,19.50
2023-02-02T03:46:03.162Z,17.70
2023-02-02T03:48:32.434Z,21.90
2023-02-02T03:51:00.751Z,19.10
2023-02-02T03:53:29.225Z,26.10
2023-02-02T03:55:58.425Z,17.10
2023-02-02T03:58:26.817Z,15.90
2023-02-02T04:00:59.435Z,19.70
2023-02-02T04:03:27.938Z,23.80
2023-02-02T04:05:57.623Z,17.60
2023-02-02T04:08:26.603Z,15.60
2023-02-02T04:10:55.699Z,15.50
2023-02-02T04:13:24.471Z,18.20
2023-02-02T04:16:01.805Z,23.20
2023-02-02T04:18:30.569Z,18.70
2023-02-02T04:21:00.738Z,13.90
2023-02-02T04:23:32.140Z,17.10
2023-02-02T04:26:01.670Z,21.40
2023-02-02T04:28:30.772Z,20.20
2023-02-02T04:31:00.762Z,17.10
2023-02-02T04:33:29.492Z,17.00
2023-02-02T04:35:58.005Z,18.90
2023-02-02T04:38:27.158Z,16.00
2023-02-02T04:40:55.911Z,17.80
2023-02-02T04:43:24.620Z,20.70
2023-02-02T04:45:57.249Z,20.20
2023-02-02T04:48:27.041Z,27.30
2023-02-02T04:51:03.548Z,18.70
2023-02-02T04:53:33.128Z,18.30
2023-02-02T04:56:14.905Z,21.60
2023-02-02T04:58:45.332Z,17.00
2023-02-02T05:01:17.755Z,19.90
2023-02-02T05:03:47.321Z,22.00
2023-02-02T05:06:17.390Z,23.70
2023-02-02T05:08:48.081Z,17.30
2023-02-02T05:11:20.595Z,21.10
2023-02-02T05:13:51.711Z,19.70
2023-02-02T05:16:21.046Z,20.00
2023-02-02T05:18:55.035Z,17.60
2023-02-02T05:21:24.106Z,17.00
2023-02-02T05:23:53.091Z,26.10
2023-02-02T05:26:25.961Z,20.40
2023-02-02T05:28:55.096Z,18.10
2023-02-02T05:31:24.213Z,24.50
2023-02-02T05:33:54.028Z,21.30
2023-02-02T05:36:23.313Z,15.90
2023-02-02T05:38:51.551Z,21.80
2023-02-02T05:41:20.595Z,22.20
2023-02-02T05:43:49.756Z,20.10
2023-02-02T05:46:18.324Z,20.20
2023-02-02T05:48:46.637Z,24.20
2023-02-02T05:51:25.052Z,18.10
2023-02-02T05:53:53.739Z,18.80
2023-02-02T05:56:22.252Z,24.40
2023-02-02T05:58:50.602Z,20.50
2023-02-02T06:01:19.421Z,16.70
2023-02-02T06:03:48.132Z,15.90
2023-02-02T06:06:16.578Z,18.90
2023-02-02T06:08:44.903Z,18.80
2023-02-02T06:11:16.822Z,19.10
2023-02-02T06:13:46.112Z,17.10
2023-02-02T06:16:15.994Z,19.00
2023-02-02T06:18:45.280Z,24.40
2023-02-02T06:21:13.373Z,19.10
2023-02-02T06:23:46.122Z,18.20
2023-02-02T06:26:15.313Z,20.20
2023-02-02T06:28:47.774Z,18.60
2023-02-02T06:31:19.440Z,20.70
2023-02-02T06:33:56.148Z,15.20
2023-02-02T06:36:26.156Z,17.50
2023-02-02T06:38:55.862Z,16.20
2023-02-02T06:41:24.959Z,16.10
2023-02-02T06:43:53.224Z,15.10
2023-02-02T06:46:21.641Z,13.30
2023-02-02T06:48:52.866Z,13.60
2023-02-02T06:51:20.989Z,14.50
2023-02-02T06:53:49.679Z,12.60
2023-02-02T06:56:18.079Z,14.50
2023-02-02T06:58:46.253Z,11.70
2023-02-02T07:01:15.357Z,18.70
2023-02-02T07:03:48.856Z,13.80
2023-02-02T07:06:23.607Z,14.20
2023-02-02T07:09:02.312Z,15.30
2023-02-02T07:11:34.609Z,16.50
2023-02-02T07:14:04.045Z,15.60
2023-02-02T07:16:32.656Z,12.70
2023-02-02T07:19:01.710Z,13.30
2023-02-02T07:21:35.773Z,14.40
2023-02-02T07:24:05.607Z,12.70
2023-02-02T07:26:35.998Z,14.20
2023-02-02T07:29:05.972Z,13.40
2023-02-02T07:31:36.647Z,14.60
2023-02-02T07:34:05.831Z,15.40
2023-02-02T07:36:34.169Z,14.70
2023-02-02T07:39:05.071Z,14.00
2023-02-02T07:41:37.345Z,15.00
2023-02-02T07:44:06.093Z,8.70
2023-02-02T07:46:34.432Z,11.80
2023-02-02T07:49:03.906Z,17.40
2023-02-02T07:51:32.189Z,20.30
2023-02-02T07:54:00.591Z,16.60
2023-02-02T07:56:28.890Z,10.90
2023-02-02T07:58:58.157Z,11.70
2023-02-02T08:01:28.596Z,11.40
2023-02-02T08:04:00.597Z,11.00
2023-02-02T08:06:33.847Z,7.00
2023-02-02T08:09:03.621Z,7.70
2023-02-02T08:11:31.999Z,7.20
2023-02-02T08:14:02.171Z,6.00
2023-02-02T08:16:32.732Z,6.10
2023-02-02T08:19:01.220Z,7.60
2023-02-02T08:21:29.716Z,6.30
2023-02-02T08:23:58.019Z,5.90
2023-02-02T08:26:29.535Z,4.80
2023-02-02T08:29:04.205Z,5.20
2023-02-02T08:31:35.573Z,7.60
2023-02-02T08:34:05.243Z,6.00
2023-02-02T08:36:35.695Z,10.20
2023-02-02T08:39:06.886Z,9.60
2023-02-02T08:41:37.007Z,10.90
2023-02-02T08:44:09.378Z,10.80
2023-02-02T08:46:40.607Z,10.90
2023-02-02T08:49:13.097Z,8.10
2023-02-02T08:51:42.151Z,7.20
2023-02-02T08:54:10.570Z,6.60
2023-02-02T08:56:38.956Z,7.70
2023-02-02T08:59:07.989Z,10.70
2023-02-02T09:01:36.363Z,10.10
2023-02-02T09:04:14.010Z,8.90
2023-02-02T09:06:44.305Z,6.70
2023-02-02T09:09:15.520Z,7.00
2023-02-02T09:11:44.618Z,7.60
2023-02-02T09:14:14.370Z,7.50
2023-02-02T09:16:43.250Z,9.40
2023-02-02T09:19:12.342Z,7.80
2023-02-02T09:21:40.772Z,11.10
2023-02-02T09:24:12.136Z,9.40
2023-02-02T09:26:41.555Z,16.20
2023-02-02T09:29:16.241Z,8.70
2023-02-02T09:31:44.976Z,5.50
2023-02-02T09:34:15.615Z,5.40
2023-02-02T09:36:44.838Z,5.30
2023-02-02T09:39:15.246Z,4.80
2023-02-02T09:42:04.434Z,5.30
2023-02-02T09:44:51.903Z,5.40
2023-02-02T09:47:56.624Z,16.30
2023-02-02T09:50:42.218Z,9.30
2023-02-02T09:53:29.245Z,7.40
2023-02-02T09:56:01.367Z,6.10
2023-02-02T09:58:36.980Z,6.70
2023-02-02T10:01:11.281Z,6.00
2023-02-02T10:03:58.082Z,6.90
2023-02-02T10:06:41.478Z,7.50
2023-02-02T10:09:25.326Z,6.20
2023-02-02T10:14:51.955Z,5.80
2023-02-02T10:17:46.771Z,10.50
2023-02-02T10:20:18.813Z,6.20
2023-02-02T10:22:48.707Z,3.40
2023-02-02T10:25:18.095Z,2.10
2023-02-02T10:28:19.718Z,4.20
2023-02-02T10:31:01.447Z,3.90
2023-02-02T10:34:02.645Z,1.50
2023-02-02T10:36:43.313Z,2.70
2023-02-02T10:39:26.762Z,3.10
2023-02-02T10:42:29.222Z,4.00
2023-02-02T10:45:06.688Z,5.50
2023-02-02T10:47:35.263Z,3.60
2023-02-02T10:50:12.941Z,3.20
2023-02-02T10:52:48.995Z,3.60
2023-02-02T10:55:27.788Z,3.00
2023-02-02T10:58:14.014Z,5.30
2023-02-02T11:00:58.233Z,2.90
2023-02-02T11:03:29.240Z,4.10
2023-02-02T11:06:20.184Z,2.60
2023-02-02T11:08:56.984Z,2.40
2023-02-02T11:11:38.450Z,2.50
2023-02-02T11:14:10.061Z,1.70
2023-02-02T11:16:43.549Z,3.10
2023-02-02T11:19:18.111Z,3.50
2023-02-02T11:21:51.469Z,7.30
2023-02-02T11:27:02.516Z,7.10
2023-02-02T11:29:34.103Z,4.60
2023-02-02T11:32:27.984Z,5.10
2023-02-02T11:35:08.495Z,6.00
2023-02-02T11:37:39.298Z,4.40
2023-02-02T11:40:27.037Z,4.20
2023-02-02T11:42:57.472Z,4.20
2023-02-02T11:45:50.084Z,4.00
2023-02-02T11:48:23.149Z,3.80
2023-02-02T11:50:54.268Z,6.70
2023-02-02T11:53:27.689Z,4.80
2023-02-02T11:56:01.519Z,4.40
2023-02-02T11:58:44.290Z,5.90
2023-02-02T12:01:34.305Z,6.00
2023-02-02T12:04:22.391Z,5.20
2023-02-02T12:06:50.986Z,5.40
2023-02-02T12:09:24.710Z,4.90
2023-02-02T12:12:15.823Z,4.70
2023-02-02T12:14:58.987Z,4.00
2023-02-02T12:17:39.214Z,4.00
2023-02-02T12:20:07.671Z,4.50
2023-02-02T12:23:20.830Z,3.50
2023-02-02T12:26:20.242Z,3.50
2023-02-02T12:28:58.772Z,1.10
2023-02-02T12:31:36.102Z,1.30
2023-02-02T12:34:19.841Z,7.40
2023-02-02T12:39:44.533Z,7.90
2023-02-02T12:42:37.475Z,4.80
2023-02-02T12:45:23.926Z,8.20
2023-02-02T12:48:03.905Z,5.60
2023-02-02T12:50:37.875Z,4.10
2023-02-02T12:53:17.155Z,3.50
2023-02-02T12:56:04.949Z,6.10
2023-02-02T12:58:48.229Z,5.30
2023-02-02T13:02:01.448Z,3.60
2023-02-02T13:07:32.334Z,2.60
2023-02-02T13:10:13.043Z,3.10
2023-02-02T13:13:04.174Z,3.10
2023-02-02T13:15:49.727Z,4.00
2023-02-02T13:18:34.619Z,4.30
2023-02-02T13:21:08.695Z,4.90
2023-02-02T13:23:42.990Z,3.70
2023-02-02T13:26:24.445Z,2.90
2023-02-02T13:29:00.477Z,4.80
2023-02-02T13:31:47.478Z,4.50
2023-02-02T13:34:34.313Z,6.70
2023-02-02T13:37:18.210Z,4.30
2023-02-02T13:40:21.228Z,7.00
2023-02-02T13:42:53.516Z,6.40
2023-02-02T13:45:30.339Z,6.60
2023-02-02T13:48:26.179Z,6.80
2023-02-02T13:51:17.631Z,4.20
2023-02-02T13:54:13.619Z,6.30
2023-02-02T13:56:49.556Z,8.00
2023-02-02T13:59:35.845Z,5.50
2023-02-02T14:02:07.495Z,6.10
2023-02-02T14:04:36.582Z,10.60
2023-02-02T14:07:06.448Z,8.30
2023-02-02T14:09:37.611Z,8.30
2023-02-02T14:12:09.957Z,8.50
2023-02-02T14:14:45.553Z,13.60
2023-02-02T14:17:13.625Z,9.30
2023-02-02T14:19:53.861Z,5.50
2023-02-02T14:22:44.605Z,9.50
2023-02-02T14:25:33.834Z,6.80
2023-02-02T14:28:12.279Z,6.10
2023-02-02T14:30:43.861Z,6.10
2023-02-02T14:33:22.278Z,4.90
2023-02-02T14:35:52.312Z,7.40
2023-02-02T14:38:45.199Z,3.80
2023-02-02T14:41:43.220Z,4.70
2023-02-02T14:44:11.494Z,4.80
2023-02-02T14:46:41.384Z,5.70
2023-02-02T14:49:17.342Z,6.90
2023-02-02T14:51:59.068Z,7.80
2023-02-02T14:54:34.583Z,7.80
2023-02-02T14:57:19.853Z,7.20
2023-02-02T14:59:49.373Z,13.60
2023-02-02T15:02:23.496Z,7.10
2023-02-02T15:04:52.380Z,7.90
2023-02-02T15:07:23.957Z,10.90
2023-02-02T15:09:56.515Z,11.70
2023-02-02T15:12:47.140Z,8.60
2023-02-02T15:15:23.527Z,10.70
2023-02-02T15:18:01.112Z,11.00
2023-02-02T15:21:00.250Z,9.90
2023-02-02T15:23:40.842Z,11.20
2023-02-02T15:26:13.606Z,10.10
2023-02-02T15:28:42.115Z,13.20
2023-02-02T15:31:35.741Z,14.70
2023-02-02T15:34:43.702Z,11.80
2023-02-02T15:37:20.893Z,9.80
2023-02-02T15:39:53.621Z,12.30
2023-02-02T15:42:53.745Z,10.20
2023-02-02T15:45:28.334Z,18.10
2023-02-02T15:47:58.715Z,13.70
2023-02-02T15:50:27.269Z,13.20
2023-02-02T15:52:56.272Z,15.00
2023-02-02T15:55:29.580Z,7.00
2023-02-02T15:57:58.379Z,8.10
2023-02-02T16:00:33.333Z,8.80
2023-02-02T16:03:15.297Z,9.30
2023-02-02T16:05:50.964Z,10.10
2023-02-02T16:08:34.502Z,10.80
2023-02-02T16:11:08.990Z,14.40
2023-02-02T16:13:40.684Z,9.10
2023-02-02T16:16:30.716Z,9.20
2023-02-02T16:19:05.109Z,12.60
2023-02-02T16:21:35.748Z,13.20
2023-02-02T16:24:07.410Z,12.50
2023-02-02T16:26:36.581Z,11.60
2023-02-02T16:29:05.542Z,14.00
2023-02-02T16:31:36.308Z,11.90
2023-02-02T16:34:05.357Z,13.20
2023-02-02T16:36:33.647Z,10.50
2023-02-02T16:39:02.708Z,10.30
2023-02-02T16:41:36.684Z,10.40
2023-02-02T16:44:30.750Z,11.20
2023-02-02T16:47:00.351Z,12.20
2023-02-02T16:49:34.008Z,12.00
2023-02-02T16:52:20.521Z,14.30
2023-02-02T16:54:57.431Z,7.70
2023-02-02T16:57:33.163Z,7.50
2023-02-02T17:00:07.239Z,5.30
2023-02-02T17:02:39.291Z,4.00
2023-02-02T17:05:23.525Z,7.10
2023-02-02T17:08:00.708Z,6.10
2023-02-02T17:10:39.199Z,5.10
2023-02-02T17:13:36.636Z,5.20
2023-02-02T17:16:05.769Z,6.10
2023-02-02T17:18:34.165Z,3.60
2023-02-02T17:21:07.703Z,6.70
2023-02-02T17:23:37.232Z,7.60
2023-02-02T17:26:10.065Z,5.40
2023-02-02T17:28:40.984Z,5.50
2023-02-02T17:31:12.090Z,10.10
2023-02-02T17:33:41.471Z,7.50
2023-02-02T17:36:15.371Z,6.10
2023-02-02T17:38:44.219Z,6.00
2023-02-02T17:41:15.685Z,3.10
2023-02-02T17:43:44.818Z,5.10
2023-02-02T17:46:13.597Z,5.80
2023-02-02T17:48:42.192Z,4.90
2023-02-02T17:51:15.316Z,4.60
2023-02-02T17:53:44.695Z,4.40
2023-02-02T17:56:13.048Z,2.80
2023-02-02T17:58:41.513Z,5.40
2023-02-02T18:01:11.377Z,3.40
2023-02-02T18:03:41.741Z,5.50
2023-02-02T18:06:11.314Z,4.00
2023-02-02T18:08:41.044Z,3.00
2023-02-02T18:11:12.727Z,2.90
2023-02-02T18:13:49.219Z,4.40
2023-02-02T18:16:20.014Z,5.10
2023-02-02T18:18:48.614Z,4.20
2023-02-02T18:21:16.926Z,8.50
2023-02-02T18:23:48.771Z,9.60
2023-02-02T18:26:19.010Z,5.60
2023-02-02T18:28:49.341Z,5.90
2023-02-02T18:31:21.352Z,7.40
2023-02-02T18:33:50.587Z,11.60
2023-02-02T18:36:21.608Z,12.40
2023-02-02T18:38:51.628Z,7.70
2023-02-02T18:41:21.665Z,6.10
2023-02-02T18:43:52.887Z,5.60
2023-02-02T18:46:21.235Z,3.80
2023-02-02T18:48:49.581Z,5.10
2023-02-02T18:51:18.878Z,4.60
2023-02-02T18:53:48.266Z,7.80
2023-02-02T18:56:18.166Z,7.20
2023-02-02T18:58:46.471Z,7.10
2023-02-02T19:01:19.258Z,7.00
2023-02-02T19:03:50.012Z,4.70
2023-02-02T19:06:40.469Z,5.60
2023-02-02T19:09:09.444Z,5.30
2023-02-02T19:11:44.029Z,2.10
2023-02-02T19:14:24.702Z,4.90
2023-02-02T19:16:56.351Z,4.80
2023-02-02T19:19:27.725Z,2.50
2023-02-02T19:22:01.080Z,4.20
2023-02-02T19:24:37.748Z,5.60
2023-02-02T19:27:18.306Z,7.10
2023-02-02T19:29:50.854Z,6.30
2023-02-02T19:32:23.060Z,5.90
2023-02-02T19:34:57.404Z,6.40
2023-02-02T19:37:31.522Z,6.50
2023-02-02T19:40:22.929Z,6.50
2023-02-02T19:43:08.689Z,5.60
2023-02-02T19:45:37.764Z,6.40
2023-02-02T19:48:18.225Z,6.10
2023-02-02T19:50:47.297Z,4.70
2023-02-02T19:53:38.184Z,5.50
2023-02-02T19:56:27.321Z,4.30
2023-02-02T19:58:55.820Z,5.00
2023-02-02T20:01:28.210Z,6.30
2023-02-02T20:03:58.553Z,3.70
2023-02-02T20:06:31.115Z,6.40
2023-02-02T20:09:10.446Z,5.70
2023-02-02T20:11:41.201Z,7.30
2023-02-02T20:14:19.706Z,5.30
2023-02-02T20:16:56.624Z,4.80
2023-02-02T20:19:29.145Z,4.60
2023-02-02T20:21:57.287Z,6.00
2023-02-02T20:24:28.244Z,4.90
2023-02-02T20:27:00.784Z,4.50
2023-02-02T20:29:42.311Z,3.40
2023-02-02T20:32:30.413Z,3.50
2023-02-02T20:34:59.435Z,7.00
2023-02-02T20:37:32.449Z,6.30
2023-02-02T20:40:23.180Z,6.30
2023-02-02T20:42:51.419Z,4.80
2023-02-02T20:45:21.673Z,5.70
2023-02-02T20:47:50.187Z,6.40
2023-02-02T20:50:20.856Z,5.90
2023-02-02T20:52:49.569Z,8.00
2023-02-02T20:55:18.307Z,7.50
2023-02-02T20:57:46.704Z,7.10
2023-02-02T21:00:18.174Z,5.20
2023-02-02T21:02:46.452Z,6.40
2023-02-02T21:05:15.537Z,7.20
2023-02-02T21:07:44.394Z,6.50
2023-02-02T21:10:12.657Z,9.00
2023-02-02T21:12:40.971Z,6.50
2023-02-02T21:15:10.332Z,5.20
2023-02-02T21:17:40.822Z,6.10
2023-02-02T21:20:10.605Z,5.10
2023-02-02T21:22:39.226Z,4.50
2023-02-02T21:25:07.700Z,5.20
2023-02-02T21:27:36.193Z,6.90
2023-02-02T21:30:05.773Z,4.50
2023-02-02T21:32:34.277Z,5.80
2023-02-02T21:35:03.604Z,6.90
2023-02-02T21:37:36.739Z,3.70
2023-02-02T21:40:14.380Z,3.50
2023-02-02T21:42:49.519Z,5.70
2023-02-02T21:45:34.625Z,4.10
2023-02-02T21:48:08.119Z,5.90
2023-02-02T21:53:10.048Z,4.00
2023-02-02T21:55:39.488Z,4.10
2023-02-02T21:58:17.922Z,6.80
2023-02-02T22:00:47.017Z,5.80
2023-02-02T22:03:39.283Z,6.20
2023-02-02T22:06:26.681Z,7.30
2023-02-02T22:09:01.675Z,3.90
2023-02-02T22:11:40.491Z,5.20
2023-02-02T22:14:25.284Z,6.00
2023-02-02T22:16:58.114Z,10.40
2023-02-02T22:19:26.584Z,7.50
2023-02-02T22:22:10.470Z,11.40
2023-02-02T22:24:39.410Z,11.50
2023-02-02T22:27:26.230Z,11.90
2023-02-02T22:30:06.833Z,11.80
2023-02-02T22:32:35.025Z,9.10
2023-02-02T22:35:03.261Z,9.70
2023-02-02T22:37:31.807Z,7.90
2023-02-02T22:40:00.902Z,6.50
2023-02-02T22:42:29.377Z,6.40
2023-02-02T22:44:57.830Z,10.30
2023-02-02T22:47:26.079Z,6.10
2023-02-02T22:49:55.108Z,4.10
2023-02-02T22:52:23.308Z,4.80
2023-02-02T22:54:51.568Z,5.60
2023-02-02T22:57:19.959Z,4.20
2023-02-02T22:59:48.365Z,5.60
2023-02-02T23:02:16.872Z,5.70
2023-02-02T23:04:45.019Z,8.00
2023-02-02T23:07:13.331Z,6.20
2023-02-02T23:09:41.617Z,4.40
2023-02-02T23:12:10.087Z,5.70
2023-02-02T23:14:38.082Z,4.00
2023-02-02T23:17:08.293Z,5.10
2023-02-02T23:19:36.534Z,4.60
2023-02-02T23:25:01.336Z,6.50
2023-02-02T23:27:29.597Z,4.70
2023-02-02T23:29:57.925Z,4.90
2023-02-02T23:32:25.980Z,5.60
2023-02-02T23:34:54.024Z,7.70
2023-02-02T23:37:22.169Z,5.20
2023-02-02T23:39:50.218Z,5.00
2023-02-02T23:42:18.518Z,6.40
2023-02-02T23:44:46.816Z,6.70
2023-02-02T23:47:15.773Z,6.90
2023-02-02T23:49:44.608Z,9.50
2023-02-02T23:52:13.055Z,6.70
2023-02-02T23:54:41.361Z,6.20
2023-02-02T23:57:09.755Z,9.00
2023-02-02T23:59:38.205Z,6.50
